sensor_id;sensor_type;location;lat;lon;timestamp;pressure;altitude;pressure_sealevel;temperature
40047;BMP280;31510;48.122;11.576;2022-10-24T00:02:01;95746.34;;;16.73
40047;BMP280;31510;48.122;11.576;2022-10-24T00:04:26;95734.38;;;16.74
40047;BMP280;31510;48.122;11.576;2022-10-24T00:06:51;95736.59;;;16.76
40047;BMP280;31510;48.122;11.576;2022-10-24T00:09:17;95746.41;;;16.78
40047;BMP280;31510;48.122;11.576;2022-10-24T00:11:42;95754.78;;;16.80
40047;BMP280;31510;48.122;11.576;2022-10-24T00:14:07;95752.81;;;16.81
40047;BMP280;31510;48.122;11.576;2022-10-24T00:16:32;95747.88;;;16.79
40047;BMP280;31510;48.122;11.576;2022-10-24T00:18:59;95753.75;;;16.78
40047;BMP280;31510;48.122;11.576;2022-10-24T00:21:25;95756.44;;;16.78
40047;BMP280;31510;48.122;11.576;2022-10-24T00:23:51;95745.66;;;16.78
40047;BMP280;31510;48.122;11.576;2022-10-24T00:26:16;95756.19;;;16.76
40047;BMP280;31510;48.122;11.576;2022-10-24T00:28:42;95774.31;;;16.76
40047;BMP280;31510;48.122;11.576;2022-10-24T00:31:11;95786.00;;;16.73
40047;BMP280;31510;48.122;11.576;2022-10-24T00:33:37;95813.88;;;16.70
40047;BMP280;31510;48.122;11.576;2022-10-24T00:36:02;95832.94;;;16.66
40047;BMP280;31510;48.122;11.576;2022-10-24T00:38:28;95827.75;;;16.63
40047;BMP280;31510;48.122;11.576;2022-10-24T00:40:53;95835.75;;;16.57
40047;BMP280;31510;48.122;11.576;2022-10-24T00:43:22;95823.22;;;16.49
40047;BMP280;31510;48.122;11.576;2022-10-24T00:45:51;95829.66;;;16.37
40047;BMP280;31510;48.122;11.576;2022-10-24T00:48:24;95823.41;;;16.26
40047;BMP280;31510;48.122;11.576;2022-10-24T00:51:01;95803.41;;;16.12
40047;BMP280;31510;48.122;11.576;2022-10-24T00:53:28;95811.59;;;16.03
40047;BMP280;31510;48.122;11.576;2022-10-24T00:55:56;95811.28;;;15.96
40047;BMP280;31510;48.122;11.576;2022-10-24T00:58:24;95805.06;;;15.90
40047;BMP280;31510;48.122;11.576;2022-10-24T01:00:50;95794.69;;;15.83
40047;BMP280;31510;48.122;11.576;2022-10-24T01:03:16;95795.84;;;15.77
40047;BMP280;31510;48.122;11.576;2022-10-24T01:05:58;95797.91;;;15.67
40047;BMP280;31510;48.122;11.576;2022-10-24T01:16:44;95764.25;;;15.38
40047;BMP280;31510;48.122;11.576;2022-10-24T01:21:51;95755.28;;;15.26
40047;BMP280;31510;48.122;11.576;2022-10-24T01:24:30;95751.28;;;15.22
40047;BMP280;31510;48.122;11.576;2022-10-24T01:29:58;95733.19;;;15.17
40047;BMP280;31510;48.122;11.576;2022-10-24T01:33:01;95730.19;;;15.15
40047;BMP280;31510;48.122;11.576;2022-10-24T01:36:00;95726.31;;;15.16
40047;BMP280;31510;48.122;11.576;2022-10-24T01:39:05;95703.78;;;15.14
40047;BMP280;31510;48.122;11.576;2022-10-24T01:41:33;95704.44;;;15.09
40047;BMP280;31510;48.122;11.576;2022-10-24T01:44:07;95708.06;;;15.06
40047;BMP280;31510;48.122;11.576;2022-10-24T01:46:42;95714.34;;;15.03
40047;BMP280;31510;48.122;11.576;2022-10-24T01:49:17;95714.06;;;15.01
40047;BMP280;31510;48.122;11.576;2022-10-24T01:51:44;95713.06;;;14.98
40047;BMP280;31510;48.122;11.576;2022-10-24T01:54:10;95702.34;;;14.98
40047;BMP280;31510;48.122;11.576;2022-10-24T01:56:36;95715.75;;;14.98
40047;BMP280;31510;48.122;11.576;2022-10-24T01:59:07;95712.81;;;14.96
40047;BMP280;31510;48.122;11.576;2022-10-24T02:01:32;95705.94;;;14.95
40047;BMP280;31510;48.122;11.576;2022-10-24T02:04:03;95694.94;;;14.93
40047;BMP280;31510;48.122;11.576;2022-10-24T02:06:31;95680.50;;;14.91
40047;BMP280;31510;48.122;11.576;2022-10-24T02:09:02;95686.34;;;14.89
40047;BMP280;31510;48.122;11.576;2022-10-24T02:11:30;95683.84;;;14.86
40047;BMP280;31510;48.122;11.576;2022-10-24T02:13:59;95662.09;;;14.84
40047;BMP280;31510;48.122;11.576;2022-10-24T02:16:26;95639.84;;;14.83
40047;BMP280;31510;48.122;11.576;2022-10-24T02:18:54;95623.03;;;14.83
40047;BMP280;31510;48.122;11.576;2022-10-24T02:21:32;95629.13;;;14.83
40047;BMP280;31510;48.122;11.576;2022-10-24T02:24:28;95607.38;;;14.81
40047;BMP280;31510;48.122;11.576;2022-10-24T02:27:01;95605.44;;;14.82
40047;BMP280;31510;48.122;11.576;2022-10-24T02:29:51;95599.31;;;14.81
40047;BMP280;31510;48.122;11.576;2022-10-24T02:32:25;95599.31;;;14.81
40047;BMP280;31510;48.122;11.576;2022-10-24T02:34:52;95583.22;;;14.81
40047;BMP280;31510;48.122;11.576;2022-10-24T02:37:18;95574.91;;;14.79
40047;BMP280;31510;48.122;11.576;2022-10-24T02:39:46;95576.59;;;14.77
40047;BMP280;31510;48.122;11.576;2022-10-24T02:42:13;95562.41;;;14.76
40047;BMP280;31510;48.122;11.576;2022-10-24T02:44:41;95554.84;;;14.75
40047;BMP280;31510;48.122;11.576;2022-10-24T02:47:10;95563.34;;;14.74
40047;BMP280;31510;48.122;11.576;2022-10-24T02:49:37;95558.72;;;14.74
40047;BMP280;31510;48.122;11.576;2022-10-24T02:52:02;95566.50;;;14.72
40047;BMP280;31510;48.122;11.576;2022-10-24T02:54:28;95565.50;;;14.70
40047;BMP280;31510;48.122;11.576;2022-10-24T02:56:59;95561.13;;;14.72
40047;BMP280;31510;48.122;11.576;2022-10-24T02:59:25;95566.97;;;14.71
40047;BMP280;31510;48.122;11.576;2022-10-24T03:01:50;95562.81;;;14.70
40047;BMP280;31510;48.122;11.576;2022-10-24T03:04:15;95559.38;;;14.69
40047;BMP280;31510;48.122;11.576;2022-10-24T03:06:41;95560.59;;;14.68
40047;BMP280;31510;48.122;11.576;2022-10-24T03:09:07;95554.47;;;14.68
40047;BMP280;31510;48.122;11.576;2022-10-24T03:11:32;95554.47;;;14.68
40047;BMP280;31510;48.122;11.576;2022-10-24T03:13:58;95575.22;;;14.67
40047;BMP280;31510;48.122;11.576;2022-10-24T03:16:23;95563.75;;;14.67
40047;BMP280;31510;48.122;11.576;2022-10-24T03:18:49;95570.56;;;14.68
40047;BMP280;31510;48.122;11.576;2022-10-24T03:21:15;95566.22;;;14.70
40047;BMP280;31510;48.122;11.576;2022-10-24T03:23:40;95568.91;;;14.70
40047;BMP280;31510;48.122;11.576;2022-10-24T03:26:06;95574.56;;;14.72
40047;BMP280;31510;48.122;11.576;2022-10-24T03:28:31;95577.69;;;14.71
40047;BMP280;31510;48.122;11.576;2022-10-24T03:30:56;95571.88;;;14.72
40047;BMP280;31510;48.122;11.576;2022-10-24T03:33:22;95586.03;;;14.73
40047;BMP280;31510;48.122;11.576;2022-10-24T03:35:51;95578.44;;;14.71
40047;BMP280;31510;48.122;11.576;2022-10-24T03:38:17;95588.72;;;14.73
40047;BMP280;31510;48.122;11.576;2022-10-24T03:40:43;95588.72;;;14.73
40047;BMP280;31510;48.122;11.576;2022-10-24T03:43:08;95599.16;;;14.71
40047;BMP280;31510;48.122;11.576;2022-10-24T03:45:33;95586.03;;;14.73
40047;BMP280;31510;48.122;11.576;2022-10-24T03:47:58;95585.81;;;14.76
40047;BMP280;31510;48.122;11.576;2022-10-24T03:50:24;95573.91;;;14.77
40047;BMP280;31510;48.122;11.576;2022-10-24T03:52:49;95580.72;;;14.78
40047;BMP280;31510;48.122;11.576;2022-10-24T03:55:14;95601.94;;;14.76
40047;BMP280;31510;48.122;11.576;2022-10-24T03:57:40;95605.06;;;14.75
40047;BMP280;31510;48.122;11.576;2022-10-24T04:00:06;95603.63;;;14.74
40047;BMP280;31510;48.122;11.576;2022-10-24T04:02:31;95602.38;;;14.75
40047;BMP280;31510;48.122;11.576;2022-10-24T04:04:56;95597.78;;;14.75
40047;BMP280;31510;48.122;11.576;2022-10-24T04:07:22;95596.28;;;14.74
40047;BMP280;31510;48.122;11.576;2022-10-24T04:09:47;95602.38;;;14.75
40047;BMP280;31510;48.122;11.576;2022-10-24T04:12:13;95608.53;;;14.75
40047;BMP280;31510;48.122;11.576;2022-10-24T04:14:38;95605.34;;;14.76
40047;BMP280;31510;48.122;11.576;2022-10-24T04:17:04;95622.22;;;14.77
40047;BMP280;31510;48.122;11.576;2022-10-24T04:19:29;95614.16;;;14.77
40047;BMP280;31510;48.122;11.576;2022-10-24T04:21:54;95620.25;;;14.77
40047;BMP280;31510;48.122;11.576;2022-10-24T04:24:19;95624.44;;;14.78
40047;BMP280;31510;48.122;11.576;2022-10-24T04:26:45;95629.03;;;14.78
40047;BMP280;31510;48.122;11.576;2022-10-24T04:29:10;95641.28;;;14.79
40047;BMP280;31510;48.122;11.576;2022-10-24T04:31:36;95640.53;;;14.78
40047;BMP280;31510;48.122;11.576;2022-10-24T04:34:01;95657.38;;;14.79
40047;BMP280;31510;48.122;11.576;2022-10-24T04:36:26;95650.06;;;14.79
40047;BMP280;31510;48.122;11.576;2022-10-24T04:38:52;95653.47;;;14.80
40047;BMP280;31510;48.122;11.576;2022-10-24T04:41:17;95668.84;;;14.79
40047;BMP280;31510;48.122;11.576;2022-10-24T04:43:42;95663.00;;;14.81
40047;BMP280;31510;48.122;11.576;2022-10-24T04:46:08;95664.19;;;14.80
40047;BMP280;31510;48.122;11.576;2022-10-24T04:48:33;95660.78;;;14.79
40047;BMP280;31510;48.122;11.576;2022-10-24T04:50:59;95653.19;;;14.78
40047;BMP280;31510;48.122;11.576;2022-10-24T04:53:24;95655.16;;;14.77
40047;BMP280;31510;48.122;11.576;2022-10-24T04:55:50;95659.03;;;14.76
40047;BMP280;31510;48.122;11.576;2022-10-24T04:58:15;95648.28;;;14.76
40047;BMP280;31510;48.122;11.576;2022-10-24T05:00:41;95649.06;;;14.77
40047;BMP280;31510;48.122;11.576;2022-10-24T05:03:11;95644.88;;;14.76
40047;BMP280;31510;48.122;11.576;2022-10-24T05:05:36;95642.66;;;14.75
40047;BMP280;31510;48.122;11.576;2022-10-24T05:08:02;95647.28;;;14.74
40047;BMP280;31510;48.122;11.576;2022-10-24T05:10:27;95636.75;;;14.71
40047;BMP280;31510;48.122;11.576;2022-10-24T05:12:52;95641.66;;;14.72
40047;BMP280;31510;48.122;11.576;2022-10-24T05:15:18;95644.78;;;14.71
40047;BMP280;31510;48.122;11.576;2022-10-24T05:17:43;95640.16;;;14.71
40047;BMP280;31510;48.122;11.576;2022-10-24T05:20:09;95647.47;;;14.71
40047;BMP280;31510;48.122;11.576;2022-10-24T05:22:34;95647.75;;;14.73
40047;BMP280;31510;48.122;11.576;2022-10-24T05:24:59;95644.78;;;14.71
40047;BMP280;31510;48.122;11.576;2022-10-24T05:27:25;95653.13;;;14.73
40047;BMP280;31510;48.122;11.576;2022-10-24T05:29:51;95652.66;;;14.74
40047;BMP280;31510;48.122;11.576;2022-10-24T05:32:17;95652.66;;;14.74
40047;BMP280;31510;48.122;11.576;2022-10-24T05:34:42;95649.97;;;14.74
40047;BMP280;31510;48.122;11.576;2022-10-24T05:37:07;95663.19;;;14.77
40047;BMP280;31510;48.122;11.576;2022-10-24T05:39:33;95659.03;;;14.76
40047;BMP280;31510;48.122;11.576;2022-10-24T05:41:58;95663.94;;;14.78
40047;BMP280;31510;48.122;11.576;2022-10-24T05:44:23;95660.06;;;14.79
40047;BMP280;31510;48.122;11.576;2022-10-24T05:46:48;95674.22;;;14.79
40047;BMP280;31510;48.122;11.576;2022-10-24T05:49:14;95670.34;;;14.80
40047;BMP280;31510;48.122;11.576;2022-10-24T05:51:39;95681.34;;;14.82
40047;BMP280;31510;48.122;11.576;2022-10-24T05:54:04;95679.84;;;14.81
40047;BMP280;31510;48.122;11.576;2022-10-24T05:56:30;95680.31;;;14.80
40047;BMP280;31510;48.122;11.576;2022-10-24T06:01:40;95676.97;;;14.85
40047;BMP280;31510;48.122;11.576;2022-10-24T06:04:05;95685.78;;;14.85
40047;BMP280;31510;48.122;11.576;2022-10-24T06:06:31;95691.88;;;14.86
40047;BMP280;31510;48.122;11.576;2022-10-24T06:08:56;95693.84;;;14.85
40047;BMP280;31510;48.122;11.576;2022-10-24T06:11:22;95691.63;;;14.84
40047;BMP280;31510;48.122;11.576;2022-10-24T06:13:47;95696.22;;;14.83
40047;BMP280;31510;48.122;11.576;2022-10-24T06:16:12;95688.19;;;14.83
40047;BMP280;31510;48.122;11.576;2022-10-24T06:18:38;95698.44;;;14.85
40047;BMP280;31510;48.122;11.576;2022-10-24T06:21:06;95694.31;;;14.84
40047;BMP280;31510;48.122;11.576;2022-10-24T06:23:32;95691.63;;;14.84
40047;BMP280;31510;48.122;11.576;2022-10-24T06:25:57;95701.91;;;14.85
40047;BMP280;31510;48.122;11.576;2022-10-24T06:28:23;95693.09;;;14.85
40047;BMP280;31510;48.122;11.576;2022-10-24T06:30:49;95700.69;;;14.86
40047;BMP280;31510;48.122;11.576;2022-10-24T06:33:15;95695.31;;;14.86
40047;BMP280;31510;48.122;11.576;2022-10-24T06:35:40;95698.72;;;14.87
40047;BMP280;31510;48.122;11.576;2022-10-24T06:38:05;95696.53;;;14.85
40047;BMP280;31510;48.122;11.576;2022-10-24T06:40:31;95703.09;;;14.84
40047;BMP280;31510;48.122;11.576;2022-10-24T06:42:56;95687.72;;;14.85
40047;BMP280;31510;48.122;11.576;2022-10-24T06:45:22;95684.75;;;14.83
40047;BMP280;31510;48.122;11.576;2022-10-24T06:47:48;95678.66;;;14.82
40047;BMP280;31510;48.122;11.576;2022-10-24T06:50:14;95674.75;;;14.83
40047;BMP280;31510;48.122;11.576;2022-10-24T06:52:39;95657.19;;;14.82
40047;BMP280;31510;48.122;11.576;2022-10-24T06:55:05;95655.22;;;14.83
40047;BMP280;31510;48.122;11.576;2022-10-24T06:57:30;95661.06;;;14.81
40047;BMP280;31510;48.122;11.576;2022-10-24T06:59:55;95667.66;;;14.80
40047;BMP280;31510;48.122;11.576;2022-10-24T07:02:21;95673.28;;;14.82
40047;BMP280;31510;48.122;11.576;2022-10-24T07:04:46;95669.56;;;14.80
40047;BMP280;31510;48.122;11.576;2022-10-24T07:07:16;95680.31;;;14.80
40047;BMP280;31510;48.122;11.576;2022-10-24T07:09:42;95686.16;;;14.78
40047;BMP280;31510;48.122;11.576;2022-10-24T07:12:07;95686.63;;;14.77
40047;BMP280;31510;48.122;11.576;2022-10-24T07:14:33;95683.47;;;14.78
40047;BMP280;31510;48.122;11.576;2022-10-24T07:16:59;95683.47;;;14.78
40047;BMP280;31510;48.122;11.576;2022-10-24T07:19:24;95683.75;;;14.80
40047;BMP280;31510;48.122;11.576;2022-10-24T07:21:49;95697.19;;;14.80
40047;BMP280;31510;48.122;11.576;2022-10-24T07:24:15;95701.78;;;14.80
40047;BMP280;31510;48.122;11.576;2022-10-24T07:26:40;95699.09;;;14.80
40047;BMP280;31510;48.122;11.576;2022-10-24T07:29:05;95711.06;;;14.79
40047;BMP280;31510;48.122;11.576;2022-10-24T07:31:32;95707.16;;;14.80
40047;BMP280;31510;48.122;11.576;2022-10-24T07:34:00;95715.97;;;14.80
40047;BMP280;31510;48.122;11.576;2022-10-24T07:36:26;95722.34;;;14.83
40047;BMP280;31510;48.122;11.576;2022-10-24T07:38:54;95705.03;;;14.84
40047;BMP280;31510;48.122;11.576;2022-10-24T07:41:20;95707.72;;;14.84
40047;BMP280;31510;48.122;11.576;2022-10-24T07:43:46;95708.91;;;14.83
40047;BMP280;31510;48.122;11.576;2022-10-24T07:46:13;95701.59;;;14.83
40047;BMP280;31510;48.122;11.576;2022-10-24T07:48:39;95708.72;;;14.86
40047;BMP280;31510;48.122;11.576;2022-10-24T07:51:10;95708.28;;;14.88
40047;BMP280;31510;48.122;11.576;2022-10-24T07:53:35;95718.28;;;14.87
40047;BMP280;31510;48.122;11.576;2022-10-24T07:56:01;95715.31;;;14.85
40047;BMP280;31510;48.122;11.576;2022-10-24T07:58:28;95711.41;;;14.86
40047;BMP280;31510;48.122;11.576;2022-10-24T08:00:53;95706.03;;;14.86
40047;BMP280;31510;48.122;11.576;2022-10-24T08:03:19;95720.47;;;14.89
40047;BMP280;31510;48.122;11.576;2022-10-24T08:05:44;95720.47;;;14.89
40047;BMP280;31510;48.122;11.576;2022-10-24T08:08:10;95724.66;;;14.90
40047;BMP280;31510;48.122;11.576;2022-10-24T08:10:35;95725.84;;;14.89
40047;BMP280;31510;48.122;11.576;2022-10-24T08:13:01;95726.16;;;14.91
40047;BMP280;31510;48.122;11.576;2022-10-24T08:15:26;95714.63;;;14.90
40047;BMP280;31510;48.122;11.576;2022-10-24T08:17:54;95714.63;;;14.90
40047;BMP280;31510;48.122;11.576;2022-10-24T08:20:20;95716.13;;;14.91
40047;BMP280;31510;48.122;11.576;2022-10-24T08:22:45;95716.13;;;14.91
40047;BMP280;31510;48.122;11.576;2022-10-24T08:25:11;95700.28;;;14.93
40047;BMP280;31510;48.122;11.576;2022-10-24T08:27:39;95704.19;;;14.92
40047;BMP280;31510;48.122;11.576;2022-10-24T08:30:04;95705.41;;;14.91
40047;BMP280;31510;48.122;11.576;2022-10-24T08:32:30;95704.19;;;14.92
40047;BMP280;31510;48.122;11.576;2022-10-24T08:34:55;95707.91;;;14.95
40047;BMP280;31510;48.122;11.576;2022-10-24T08:37:22;95714.00;;;14.95
40047;BMP280;31510;48.122;11.576;2022-10-24T08:39:47;95705.47;;;14.97
40047;BMP280;31510;48.122;11.576;2022-10-24T08:42:14;95710.66;;;15.00
40047;BMP280;31510;48.122;11.576;2022-10-24T08:44:42;95718.72;;;15.00
40047;BMP280;31510;48.122;11.576;2022-10-24T08:53:14;95726.31;;;15.02
40047;BMP280;31510;48.122;11.576;2022-10-24T08:55:47;95719.00;;;15.02
40047;BMP280;31510;48.122;11.576;2022-10-24T08:58:21;95731.22;;;15.03
40047;BMP280;31510;48.122;11.576;2022-10-24T09:00:49;95730.72;;;15.05
40047;BMP280;31510;48.122;11.576;2022-10-24T09:03:32;95742.50;;;15.07
40047;BMP280;31510;48.122;11.576;2022-10-24T09:06:02;95735.63;;;15.06
40047;BMP280;31510;48.122;11.576;2022-10-24T09:10:58;95749.34;;;15.08
40047;BMP280;31510;48.122;11.576;2022-10-24T09:13:28;95742.03;;;15.09
40047;BMP280;31510;48.122;11.576;2022-10-24T09:15:54;95751.56;;;15.10
40047;BMP280;31510;48.122;11.576;2022-10-24T09:18:32;95745.72;;;15.11
40047;BMP280;31510;48.122;11.576;2022-10-24T09:21:00;95746.13;;;15.18
40047;BMP280;31510;48.122;11.576;2022-10-24T09:23:27;95751.03;;;15.20
40047;BMP280;31510;48.122;11.576;2022-10-24T09:25:55;95754.75;;;15.22
40047;BMP280;31510;48.122;11.576;2022-10-24T09:28:22;95745.00;;;15.25
40047;BMP280;31510;48.122;11.576;2022-10-24T09:30:48;95738.72;;;15.28
40047;BMP280;31510;48.122;11.576;2022-10-24T09:35:43;95740.44;;;15.31
40047;BMP280;31510;48.122;11.576;2022-10-24T09:38:34;95744.63;;;15.32
40047;BMP280;31510;48.122;11.576;2022-10-24T09:41:01;95744.16;;;15.33
40047;BMP280;31510;48.122;11.576;2022-10-24T09:43:39;95740.75;;;15.33
40047;BMP280;31510;48.122;11.576;2022-10-24T09:46:23;95741.94;;;15.32
40047;BMP280;31510;48.122;11.576;2022-10-24T09:48:56;95749.81;;;15.35
40047;BMP280;31510;48.122;11.576;2022-10-24T09:51:41;95751.25;;;15.36
40047;BMP280;31510;48.122;11.576;2022-10-24T09:56:56;95741.28;;;15.37
40047;BMP280;31510;48.122;11.576;2022-10-24T09:59:35;95742.47;;;15.36
40047;BMP280;31510;48.122;11.576;2022-10-24T10:04:38;95747.84;;;15.36
40047;BMP280;31510;48.122;11.576;2022-10-24T10:07:10;95758.59;;;15.36
40047;BMP280;31510;48.122;11.576;2022-10-24T10:09:37;95756.63;;;15.36
40047;BMP280;31510;48.122;11.576;2022-10-24T10:12:33;95759.13;;;15.40
40047;BMP280;31510;48.122;11.576;2022-10-24T10:15:03;95752.50;;;15.35
40047;BMP280;31510;48.122;11.576;2022-10-24T10:17:29;95751.25;;;15.36
40047;BMP280;31510;48.122;11.576;2022-10-24T10:19:57;95748.56;;;15.36
40047;BMP280;31510;48.122;11.576;2022-10-24T10:22:31;95739.06;;;15.35
40047;BMP280;31510;48.122;11.576;2022-10-24T10:24:58;95748.50;;;15.31
40047;BMP280;31510;48.122;11.576;2022-10-24T10:27:36;95748.50;;;15.31
40047;BMP280;31510;48.122;11.576;2022-10-24T10:32:49;95741.66;;;15.30
40047;BMP280;31510;48.122;11.576;2022-10-24T10:35:25;95737.75;;;15.31
40047;BMP280;31510;48.122;11.576;2022-10-24T10:40:45;95753.88;;;15.31
40047;BMP280;31510;48.122;11.576;2022-10-24T10:46:20;95765.09;;;15.29
40047;BMP280;31510;48.122;11.576;2022-10-24T10:51:31;95763.63;;;15.28
40047;BMP280;31510;48.122;11.576;2022-10-24T10:56:54;95760.19;;;15.28
40047;BMP280;31510;48.122;11.576;2022-10-24T10:59:34;95761.38;;;15.27
40047;BMP280;31510;48.122;11.576;2022-10-24T11:08:00;95767.16;;;15.20
40047;BMP280;31510;48.122;11.576;2022-10-24T11:10:32;95768.38;;;15.19
40047;BMP280;31510;48.122;11.576;2022-10-24T11:13:03;95771.06;;;15.19
40047;BMP280;31510;48.122;11.576;2022-10-24T11:15:36;95772.25;;;15.18
40047;BMP280;31510;48.122;11.576;2022-10-24T11:18:09;95781.97;;;15.16
40047;BMP280;31510;48.122;11.576;2022-10-24T11:20:51;95790.03;;;15.16
40047;BMP280;31510;48.122;11.576;2022-10-24T11:23:31;95793.81;;;15.09
40047;BMP280;31510;48.122;11.576;2022-10-24T11:26:02;95804.00;;;15.05
40047;BMP280;31510;48.122;11.576;2022-10-24T11:28:38;95801.22;;;15.00
40047;BMP280;31510;48.122;11.576;2022-10-24T11:31:15;95796.94;;;14.93
40047;BMP280;31510;48.122;11.576;2022-10-24T11:33:51;95809.56;;;14.87
40047;BMP280;31510;48.122;11.576;2022-10-24T11:38:59;95809.34;;;14.76
40047;BMP280;31510;48.122;11.576;2022-10-24T11:41:32;95818.31;;;14.74
40047;BMP280;31510;48.122;11.576;2022-10-24T11:44:04;95813.13;;;14.70
40047;BMP280;31510;48.122;11.576;2022-10-24T11:46:40;95806.72;;;14.68
40047;BMP280;31510;48.122;11.576;2022-10-24T11:49:18;95800.81;;;14.64
40047;BMP280;31510;48.122;11.576;2022-10-24T11:54:24;95809.31;;;14.62
40047;BMP280;31510;48.122;11.576;2022-10-24T11:56:53;95806.38;;;14.60
40047;BMP280;31510;48.122;11.576;2022-10-24T11:59:21;95812.00;;;14.62
40047;BMP280;31510;48.122;11.576;2022-10-24T12:05:03;95828.00;;;14.57
40047;BMP280;31510;48.122;11.576;2022-10-24T12:18:35;95828.09;;;14.48
40047;BMP280;31510;48.122;11.576;2022-10-24T12:21:07;95833.44;;;14.48
40047;BMP280;31510;48.122;11.576;2022-10-24T12:23:34;95820.94;;;14.45
40047;BMP280;31510;48.122;11.576;2022-10-24T12:26:06;95812.16;;;14.44
40047;BMP280;31510;48.122;11.576;2022-10-24T12:28:33;95813.81;;;14.42
40047;BMP280;31510;48.122;11.576;2022-10-24T12:33:44;95812.78;;;14.39
40047;BMP280;31510;48.122;11.576;2022-10-24T12:36:11;95795.97;;;14.39
40047;BMP280;31510;48.122;11.576;2022-10-24T12:46:55;95813.56;;;14.40
40047;BMP280;31510;48.122;11.576;2022-10-24T12:49:31;95827.41;;;14.38
40047;BMP280;31510;48.122;11.576;2022-10-24T12:51:58;95827.41;;;14.38
40047;BMP280;31510;48.122;11.576;2022-10-24T12:54:43;95829.81;;;14.37
40047;BMP280;31510;48.122;11.576;2022-10-24T12:59:52;95826.09;;;14.34
40047;BMP280;31510;48.122;11.576;2022-10-24T13:21:19;95804.63;;;14.34
40047;BMP280;31510;48.122;11.576;2022-10-24T13:23:47;95797.81;;;14.33
40047;BMP280;31510;48.122;11.576;2022-10-24T13:31:47;95765.16;;;14.35
40047;BMP280;31510;48.122;11.576;2022-10-24T13:37:00;95768.13;;;14.37
40047;BMP280;31510;48.122;11.576;2022-10-24T13:39:29;95786.13;;;14.36
40047;BMP280;31510;48.122;11.576;2022-10-24T13:42:05;95779.47;;;14.32
40047;BMP280;31510;48.122;11.576;2022-10-24T13:49:39;95742.94;;;14.34
40047;BMP280;31510;48.122;11.576;2022-10-24T13:52:31;95727.88;;;14.37
40047;BMP280;31510;48.122;11.576;2022-10-24T13:55:02;95730.28;;;14.35
40047;BMP280;31510;48.122;11.576;2022-10-24T13:57:33;95738.03;;;14.33
40047;BMP280;31510;48.122;11.576;2022-10-24T14:00:24;95748.75;;;14.33
40047;BMP280;31510;48.122;11.576;2022-10-24T14:02:51;95752.22;;;14.33
40047;BMP280;31510;48.122;11.576;2022-10-24T14:05:30;95773.22;;;14.35
40047;BMP280;31510;48.122;11.576;2022-10-24T14:07:57;95741.66;;;14.30
40047;BMP280;31510;48.122;11.576;2022-10-24T14:10:23;95737.66;;;14.25
40047;BMP280;31510;48.122;11.576;2022-10-24T14:12:49;95726.19;;;14.25
40047;BMP280;31510;48.122;11.576;2022-10-24T14:15:23;95728.44;;;14.26
40047;BMP280;31510;48.122;11.576;2022-10-24T14:18:01;95747.66;;;14.25
40047;BMP280;31510;48.122;11.576;2022-10-24T14:20:32;95749.03;;;14.20
40047;BMP280;31510;48.122;11.576;2022-10-24T14:22:58;95765.59;;;14.19
40047;BMP280;31510;48.122;11.576;2022-10-24T14:27:49;95749.19;;;14.17
40047;BMP280;31510;48.122;11.576;2022-10-24T14:30:18;95757.25;;;14.17
40047;BMP280;31510;48.122;11.576;2022-10-24T14:32:44;95756.97;;;14.15
40047;BMP280;31510;48.122;11.576;2022-10-24T14:35:11;95757.72;;;14.15
40047;BMP280;31510;48.122;11.576;2022-10-24T14:37:38;95753.38;;;14.18
40047;BMP280;31510;48.122;11.576;2022-10-24T14:40:04;95739.22;;;14.17
40047;BMP280;31510;48.122;11.576;2022-10-24T14:42:30;95720.47;;;14.17
40047;BMP280;31510;48.122;11.576;2022-10-24T14:44:56;95707.78;;;14.18
40047;BMP280;31510;48.122;11.576;2022-10-24T14:47:27;95684.84;;;14.17
40047;BMP280;31510;48.122;11.576;2022-10-24T14:49:53;95674.13;;;14.17
40047;BMP280;31510;48.122;11.576;2022-10-24T14:52:27;95702.16;;;14.16
40047;BMP280;31510;48.122;11.576;2022-10-24T14:54:59;95722.88;;;14.15
40047;BMP280;31510;48.122;11.576;2022-10-24T14:57:28;95726.72;;;14.14
40047;BMP280;31510;48.122;11.576;2022-10-24T14:59:55;95712.31;;;14.12
40047;BMP280;31510;48.122;11.576;2022-10-24T15:02:32;95711.00;;;14.07
40047;BMP280;31510;48.122;11.576;2022-10-24T15:05:34;95711.44;;;14.06
40047;BMP280;31510;48.122;11.576;2022-10-24T15:13:03;95731.44;;;14.05
40047;BMP280;31510;48.122;11.576;2022-10-24T15:18:17;95725.03;;;14.02
40047;BMP280;31510;48.122;11.576;2022-10-24T15:20:45;95749.44;;;14.04
40047;BMP280;31510;48.122;11.576;2022-10-24T15:23:24;95746.47;;;14.02
40047;BMP280;31510;48.122;11.576;2022-10-24T15:26:18;95743.94;;;13.99
40047;BMP280;31510;48.122;11.576;2022-10-24T15:28:47;95725.94;;;13.99
40047;BMP280;31510;48.122;11.576;2022-10-24T15:31:15;95731.31;;;13.99
40047;BMP280;31510;48.122;11.576;2022-10-24T15:33:42;95737.56;;;13.96
40047;BMP280;31510;48.122;11.576;2022-10-24T15:36:15;95747.56;;;13.96
40047;BMP280;31510;48.122;11.576;2022-10-24T15:38:41;95728.50;;;13.94
40047;BMP280;31510;48.122;11.576;2022-10-24T15:41:07;95737.47;;;13.91
40047;BMP280;31510;48.122;11.576;2022-10-24T15:43:33;95746.69;;;13.90
40047;BMP280;31510;48.122;11.576;2022-10-24T15:45:58;95743.91;;;13.85
40047;BMP280;31510;48.122;11.576;2022-10-24T15:48:24;95748.69;;;13.81
40047;BMP280;31510;48.122;11.576;2022-10-24T15:50:49;95752.56;;;13.80
40047;BMP280;31510;48.122;11.576;2022-10-24T15:53:19;95753.31;;;13.80
40047;BMP280;31510;48.122;11.576;2022-10-24T15:55:45;95753.78;;;13.79
40047;BMP280;31510;48.122;11.576;2022-10-24T15:58:12;95753.50;;;13.77
40047;BMP280;31510;48.122;11.576;2022-10-24T16:00:38;95759.59;;;13.77
40047;BMP280;31510;48.122;11.576;2022-10-24T16:03:04;95761.72;;;13.73
40047;BMP280;31510;48.122;11.576;2022-10-24T16:05:38;95747.72;;;13.69
40047;BMP280;31510;48.122;11.576;2022-10-24T16:08:04;95758.16;;;13.67
40047;BMP280;31510;48.122;11.576;2022-10-24T16:10:29;95763.22;;;13.65
40047;BMP280;31510;48.122;11.576;2022-10-24T16:12:55;95758.03;;;13.62
40047;BMP280;31510;48.122;11.576;2022-10-24T16:15:28;95759.25;;;13.61